< < Back
Terminal Aerodrome Forecast


Current Version              Previous Versions:   1  2  3  4  5  6  7  8  9  

Terminal Aerodrome Forecast

872
FTUS44 KMRX 222326
TAFCHA
TAF
KCHA 222326Z 2300/2324 03004KT P6SM SKC
     FM231500 02007KT P6SM SCT250=

Latest METAR

350
SAUS80 KWBC 230300
MTRCHA
METAR KCHA 230253Z 03011KT 10SM CLR 11/06 A3021 RMK AO2 SLP229 T01110056
53017


USA.gov is the U.S. government's official web portal to all federal, state and local government web resources and services.